Time;durP1;ratioP1;P1;durP2;ratioP2;P2;SDS_P1;SDS_P2;PMS_P1;PMS_P2;Temp;Humidity;BMP_temperature;BMP_pressure;BME280_temperature;BME280_humidity;BME280_pressure;Samples;Min_cycle;Max_cycle;Signal;HPM_P1;HPM_P2
2023/04/14 00:01:58;;;;;;;11.27;5.65;;;10.30;99.90;;;10.63;73.67;100646.72;5055287;28;20107;-77
2023/04/14 00:04:27;;;;;;;17.58;5.93;;;10.30;99.90;;;10.59;73.66;100647.66;5053982;28;20041;-77
2023/04/14 00:06:57;;;;;;;14.80;6.57;;;10.20;99.90;;;10.59;73.89;100655.56;5055153;28;20453;-77
2023/04/14 00:09:26;;;;;;;12.57;5.90;;;10.20;99.90;;;10.50;73.79;100645.09;5054781;28;20045;-76
2023/04/14 00:11:55;;;;;;;14.90;6.30;;;10.20;99.90;;;10.47;73.96;100647.72;5055110;28;20068;-77
2023/04/14 00:14:23;;;;;;;14.82;6.05;;;10.20;99.90;;;10.50;73.83;100649.50;5054756;28;20401;-77
2023/04/14 00:16:51;;;;;;;17.02;5.90;;;10.10;99.90;;;10.42;74.21;100649.53;5054711;28;20047;-77
2023/04/14 00:19:21;;;;;;;19.67;6.43;;;10.10;99.90;;;10.35;73.88;100652.25;5055143;28;20083;-77
2023/04/14 00:21:50;;;;;;;18.30;6.20;;;10.00;99.90;;;10.34;74.08;100653.13;5054656;28;20041;-77
2023/04/14 00:24:18;;;;;;;12.15;6.05;;;10.00;99.90;;;10.31;74.18;100648.75;5053097;28;20536;-77
2023/04/14 00:26:46;;;;;;;14.55;6.80;;;10.00;99.90;;;10.28;74.38;100648.75;5054762;28;20041;-76
2023/04/14 00:29:15;;;;;;;13.57;5.70;;;9.90;99.90;;;10.24;74.57;100648.81;5053374;28;20052;-77
2023/04/14 00:31:43;;;;;;;16.85;5.97;;;9.90;99.90;;;10.20;74.82;100645.28;5054424;28;20040;-77
2023/04/14 00:34:11;;;;;;;12.68;6.38;;;9.80;99.90;;;10.12;74.68;100635.66;5053655;28;20769;-77
2023/04/14 00:36:42;;;;;;;14.77;5.72;;;9.90;99.90;;;10.21;74.63;100648.81;5054339;28;20051;-77
2023/04/14 00:39:10;;;;;;;15.32;6.20;;;9.80;99.90;;;10.22;74.92;100654.09;5053371;28;20049;-77
2023/04/14 00:41:39;;;;;;;14.15;5.90;;;9.80;99.90;;;10.18;74.79;100648.84;5054572;28;20033;-77
2023/04/14 00:44:07;;;;;;;13.02;5.97;;;9.80;99.90;;;10.16;74.77;100656.78;5054451;28;20041;-77
2023/04/14 00:46:36;;;;;;;9.63;6.15;;;9.80;99.90;;;10.08;75.16;100652.41;5054392;28;20048;-77
2023/04/14 00:49:05;;;;;;;15.70;6.47;;;9.80;99.90;;;10.01;75.25;100649.78;5054554;28;20041;-77
2023/04/14 00:51:34;;;;;;;16.20;6.13;;;9.70;99.90;;;10.03;75.81;100655.94;5069734;28;20048;-77
2023/04/14 00:54:07;;;;;;;12.85;5.93;;;9.70;99.90;;;9.76;76.14;100624.38;5053048;28;20049;-77
2023/04/14 00:56:35;;;;;;;12.15;5.57;;;9.70;99.90;;;9.87;76.48;100646.34;5054252;28;20048;-77
2023/04/14 00:59:06;;;;;;;13.50;6.35;;;9.70;99.90;;;9.92;76.75;100663.06;5054174;28;20056;-77
2023/04/14 01:01:36;;;;;;;16.35;5.78;;;9.60;99.90;;;9.92;76.75;100676.25;5053932;28;20486;-77
2023/04/14 01:04:05;;;;;;;15.07;5.88;;;9.60;99.90;;;9.90;77.13;100669.22;5069755;28;20477;-76
2023/04/14 01:06:36;;;;;;;14.50;5.90;;;9.60;99.90;;;9.92;77.22;100672.72;5052921;28;20055;-77
2023/04/14 01:09:06;;;;;;;12.77;5.40;;;9.60;99.90;;;9.91;77.45;100678.91;5052134;28;20071;-77
2023/04/14 01:11:44;;;;;;;14.68;5.45;;;9.60;99.90;;;9.88;77.83;100668.34;5054042;28;20087;-77
2023/04/14 01:14:26;;;;;;;13.85;5.38;;;9.60;99.90;;;9.86;77.45;100678.94;5053626;28;20043;-77
2023/04/14 01:17:00;;;;;;;12.63;5.07;;;9.50;99.90;;;9.89;77.60;100684.19;5052681;28;20056;-77
2023/04/14 01:19:51;;;;;;;12.95;5.50;;;9.60;99.90;;;9.93;77.81;100680.66;5053855;28;20098;-77
2023/04/14 01:22:23;;;;;;;12.32;4.57;;;9.60;99.90;;;9.90;77.73;100680.69;5053488;28;20044;-77
2023/04/14 01:25:15;;;;;;;14.23;5.50;;;9.60;99.90;;;9.87;78.15;100680.66;5068609;28;20091;-76
2023/04/14 01:27:57;;;;;;;11.38;5.47;;;9.60;99.90;;;9.87;78.20;100675.38;5052335;28;20494;-76
2023/04/14 01:30:43;;;;;;;15.75;5.85;;;9.60;99.90;;;9.90;78.85;100679.78;5052299;28;20049;-77
2023/04/14 01:33:18;;;;;;;18.92;6.10;;;9.60;99.90;;;9.86;78.97;100673.66;5052553;28;20052;-77
2023/04/14 01:35:57;;;;;;;16.45;7.13;;;9.60;99.90;;;9.81;78.99;100675.41;5068922;28;20053;-77
2023/04/14 01:38:31;;;;;;;16.50;8.48;;;9.50;99.90;;;9.72;78.63;100658.72;5052460;28;20051;-77
2023/04/14 01:41:06;;;;;;;26.13;10.52;;;9.50;99.90;;;9.72;79.17;100677.22;5053555;28;20076;-77
2023/04/14 01:43:41;;;;;;;20.65;9.95;;;9.50;99.90;;;9.70;78.98;100678.97;5051908;28;20044;-77
2023/04/14 01:46:14;;;;;;;20.10;9.07;;;9.50;99.90;;;9.71;79.04;100673.72;5053137;28;20044;-77
2023/04/14 01:48:46;;;;;;;22.42;8.95;;;9.40;99.90;;;9.71;79.69;100662.28;5052002;28;20135;-77
2023/04/14 01:51:18;;;;;;;21.15;7.85;;;9.40;99.90;;;9.59;79.82;100651.75;5051987;28;20052;-76
2023/04/14 01:53:47;;;;;;;15.30;6.68;;;9.40;99.90;;;9.62;79.86;100662.31;5053211;28;20057;-77
2023/04/14 01:56:17;;;;;;;14.35;6.78;;;9.40;99.90;;;9.60;80.02;100661.44;5051851;28;20143;-78
2023/04/14 01:58:48;;;;;;;16.63;6.63;;;9.30;99.90;;;9.61;80.39;100664.06;5053425;28;20047;-77
2023/04/14 02:01:18;;;;;;;17.02;6.68;;;9.30;99.90;;;9.60;80.38;100670.22;5052087;28;20331;-77
2023/04/14 02:03:49;;;;;;;16.43;6.40;;;9.30;99.90;;;9.60;80.87;100661.44;5053156;28;20041;-78
2023/04/14 02:06:20;;;;;;;16.60;6.10;;;9.30;99.90;;;9.59;81.10;100663.19;5068753;28;20295;-77
2023/04/14 02:08:49;;;;;;;16.75;5.97;;;9.30;99.90;;;9.62;80.96;100665.81;5085510;28;20441;-77
2023/04/14 02:11:19;;;;;;;17.00;6.05;;;9.30;99.90;;;9.59;81.19;100679.03;5068378;28;20045;-77
2023/04/14 02:13:48;;;;;;;14.52;5.95;;;9.30;99.90;;;9.55;80.97;100674.66;5052909;28;20045;-77
2023/04/14 02:16:18;;;;;;;14.67;6.03;;;9.30;99.90;;;9.53;81.37;100673.78;5052958;28;20098;-77
2023/04/14 02:18:49;;;;;;;12.95;5.65;;;9.20;99.90;;;9.52;81.63;100668.50;5051481;28;20513;-77
2023/04/14 02:21:20;;;;;;;11.30;5.35;;;9.30;99.90;;;9.50;81.74;100671.16;5068363;28;20048;-77
2023/04/14 02:23:49;;;;;;;12.18;6.55;;;9.20;99.90;;;9.54;81.35;100679.94;5067990;28;20049;-77
2023/04/14 02:26:21;;;;;;;13.18;6.30;;;9.20;99.90;;;9.55;81.48;100676.41;5068472;28;20060;-77
2023/04/14 02:28:56;;;;;;;22.27;6.43;;;9.20;99.90;;;9.47;81.50;100672.91;5052755;28;20091;-77
2023/04/14 02:31:27;;;;;;;10.52;5.15;;;9.20;99.90;;;9.48;81.60;100675.56;5052851;28;20463;-77
2023/04/14 02:34:00;;;;;;;15.10;6.35;;;9.20;99.90;;;9.50;81.67;100675.56;5052813;28;20055;-77
2023/04/14 02:36:34;;;;;;;14.05;5.55;;;9.20;99.90;;;9.48;81.94;100680.84;5052738;28;20056;-77
2023/04/14 02:39:16;;;;;;;14.23;6.05;;;9.20;99.90;;;9.43;81.72;100672.03;5052400;28;20496;-77
2023/04/14 02:41:46;;;;;;;11.68;5.45;;;9.20;99.90;;;9.47;81.82;100681.72;5052770;28;20051;-77
2023/04/14 02:44:22;;;;;;;18.50;5.97;;;9.20;99.90;;;9.43;81.86;100674.69;5051387;28;20443;-77
2023/04/14 02:47:02;;;;;;;12.05;5.75;;;9.10;99.90;;;9.48;81.91;100680.84;5068098;28;20045;-77
2023/04/14 02:49:37;;;;;;;14.70;5.93;;;9.20;99.90;;;9.41;81.90;100662.38;5051431;28;20410;-77
2023/04/14 02:52:07;;;;;;;15.85;6.22;;;9.20;99.90;;;9.48;81.82;100683.50;5051382;28;20045;-77
2023/04/14 02:54:37;;;;;;;13.73;5.82;;;9.20;99.90;;;9.48;81.78;100675.56;5051595;28;20132;-77
2023/04/14 02:57:07;;;;;;;15.60;5.32;;;9.20;99.90;;;9.46;81.60;100677.34;5051250;28;20044;-77
2023/04/14 02:59:40;;;;;;;13.65;6.05;;;9.20;99.90;;;9.45;81.43;100672.03;5067990;28;20076;-77
2023/04/14 03:02:12;;;;;;;12.57;6.15;;;9.20;99.90;;;9.42;82.02;100672.06;5051229;28;20482;-77
2023/04/14 03:04:46;;;;;;;9.52;6.28;;;9.20;99.90;;;9.18;81.80;100649.25;5067713;28;20095;-77
2023/04/14 03:07:26;;;;;;;13.88;5.88;;;9.10;99.90;;;9.39;81.99;100680.84;5067712;28;20045;-77
2023/04/14 03:09:55;;;;;;;11.00;5.53;;;9.10;99.90;;;9.38;82.14;100683.50;5050901;28;20057;-77
2023/04/14 03:12:25;;;;;;;12.20;5.97;;;9.10;99.90;;;9.37;82.08;100685.25;5052245;28;20052;-77
2023/04/14 03:14:55;;;;;;;17.53;5.90;;;9.10;99.90;;;9.00;82.01;100621.13;5067099;28;20048;-77
2023/04/14 03:17:24;;;;;;;12.20;5.33;;;9.10;99.90;;;9.39;82.06;100683.50;5052284;28;20080;-77
2023/04/14 03:19:55;;;;;;;13.85;5.25;;;9.10;99.90;;;9.37;81.79;100687.03;5051004;28;20055;-77
2023/04/14 03:22:25;;;;;;;;;;;9.10;99.90;;;9.38;82.28;100683.50;5051492;28;20083;-77
2023/04/14 03:24:57;;;;;;;15.32;5.95;;;9.10;99.90;;;9.35;82.20;100684.38;5050966;28;20362;-77
2023/04/14 03:27:30;;;;;;;12.27;6.57;;;9.10;99.90;;;9.30;81.83;100675.59;5050985;28;20048;-77
2023/04/14 03:30:06;;;;;;;13.73;6.30;;;9.10;99.90;;;8.69;81.81;100579.03;5050803;28;20052;-77
2023/04/14 03:32:42;;;;;;;13.25;5.07;;;9.10;99.90;;;9.20;82.14;100681.78;5070904;28;20103;-77
2023/04/14 03:35:15;;;;;;;12.70;5.75;;;9.00;99.90;;;9.17;82.55;100695.00;5055790;28;20056;-78
2023/04/14 03:37:46;;;;;;;15.95;6.60;;;9.00;99.90;;;8.88;83.94;100686.25;5054522;28;20115;-77
2023/04/14 03:40:16;;;;;;;;;;;8.80;99.90;;;8.59;84.91;100656.34;5054963;28;20045;-77
2023/04/14 03:42:48;;;;;;;13.70;7.03;;;8.60;99.90;;;8.75;84.43;100689.75;5054484;28;19931;-78
2023/04/14 03:45:20;;;;;;;13.85;7.20;;;8.60;99.90;;;8.74;85.04;100693.25;5054066;28;20081;-77
2023/04/14 03:47:50;;;;;;;20.97;6.83;;;8.60;99.90;;;8.64;85.19;100697.66;5054275;28;20068;-78
2023/04/14 03:50:22;;;;;;;21.48;7.88;;;8.60;99.90;;;8.54;85.53;100695.88;5054158;28;20040;-78
2023/04/14 03:52:53;;;;;;;17.33;7.53;;;8.40;99.90;;;8.65;85.81;100698.53;5053911;28;20045;-77
2023/04/14 03:55:25;;;;;;;18.73;7.28;;;8.50;99.90;;;8.53;85.78;100699.41;5054200;28;20049;-78
2023/04/14 03:57:56;;;;;;;17.85;7.63;;;8.40;99.90;;;8.47;86.03;100693.25;5055510;28;20048;-77
2023/04/14 04:00:27;;;;;;;23.00;8.75;;;8.30;99.90;;;8.58;86.70;100694.13;5054271;28;20136;-78
2023/04/14 04:02:57;;;;;;;22.55;7.97;;;8.40;99.90;;;8.51;86.92;100690.63;5070741;28;20498;-78
2023/04/14 04:05:28;;;;;;;25.40;9.43;;;8.40;99.90;;;8.51;87.09;100695.91;5055598;28;20041;-77
2023/04/14 04:08:02;;;;;;;27.20;9.02;;;8.40;99.90;;;8.54;87.45;100684.44;5053939;28;20045;-77
2023/04/14 04:10:34;;;;;;;25.63;9.02;;;8.40;99.90;;;8.33;87.56;100655.44;5053623;28;20041;-78
2023/04/14 04:13:06;;;;;;;20.95;8.70;;;8.40;99.90;;;8.40;87.21;100686.22;5053839;28;20137;-77
2023/04/14 04:15:36;;;;;;;26.83;9.38;;;8.40;99.90;;;8.44;87.21;100693.25;5053811;28;20510;-77
2023/04/14 04:18:07;;;;;;;24.98;8.77;;;8.30;99.90;;;8.27;87.43;100677.41;5053702;28;20041;-78
2023/04/14 04:20:38;;;;;;;21.85;8.70;;;8.30;99.90;;;8.23;87.49;100701.09;5070383;28;20048;-78
2023/04/14 04:23:08;;;;;;;24.83;9.75;;;8.10;99.90;;;7.85;89.26;100696.59;5053121;28;20068;-77
2023/04/14 04:25:38;;;;;;;18.95;8.98;;;7.80;99.90;;;7.70;89.95;100696.53;5053338;28;20044;-77
2023/04/14 04:28:16;;;;;;;26.45;10.52;;;7.50;99.90;;;7.48;91.59;100689.38;5053510;28;20104;-77
2023/04/14 04:30:46;;;;;;;29.90;10.80;;;7.30;99.90;;;7.18;92.10;100705.88;5054716;28;20051;-77
2023/04/14 04:33:15;;;;;;;23.30;11.05;;;7.10;99.90;;;7.24;93.81;100683.97;5070416;28;20045;-76
2023/04/14 04:35:46;;;;;;;31.00;11.60;;;7.00;99.90;;;6.93;94.58;100675.03;5053316;28;20502;-78
2023/04/14 04:38:15;;;;;;;26.58;10.57;;;6.90;99.90;;;7.10;94.68;100696.19;5069768;28;20053;-77
2023/04/14 04:40:46;;;;;;;27.65;11.32;;;6.90;99.90;;;7.06;95.24;100695.28;5053280;28;20041;-77
2023/04/14 04:43:22;;;;;;;25.48;11.38;;;6.90;99.90;;;6.82;95.68;100657.41;5052938;28;20131;-77
2023/04/14 04:46:12;;;;;;;30.10;11.50;;;6.80;99.90;;;6.98;96.06;100696.97;5070062;28;20504;-78
2023/04/14 04:48:40;;;;;;;27.63;11.05;;;6.80;99.90;;;6.93;96.75;100703.09;5054392;28;20037;-78
2023/04/14 04:51:10;;;;;;;26.88;11.48;;;6.70;99.90;;;6.82;96.81;100688.94;5054200;28;20041;-77
2023/04/14 04:53:40;;;;;;;28.63;12.77;;;6.70;99.90;;;6.80;97.13;100693.31;5053022;28;20045;-77
2023/04/14 04:56:08;;;;;;;28.83;12.13;;;6.70;99.90;;;6.83;97.88;100706.50;5069365;28;20136;-77
2023/04/14 04:58:37;;;;;;;28.63;12.02;;;6.60;99.90;;;6.87;98.24;100700.41;5054033;28;20045;-77
2023/04/14 05:01:08;;;;;;;30.48;12.25;;;6.60;99.90;;;6.93;98.64;100700.44;5054131;28;20494;-77
2023/04/14 05:03:37;;;;;;;34.40;11.90;;;6.70;99.90;;;6.92;98.60;100702.19;5054228;28;20481;-76
2023/04/14 05:06:06;;;;;;;32.45;13.18;;;6.70;99.90;;;7.11;98.14;100703.19;5054035;28;20041;-77
2023/04/14 05:08:36;;;;;;;30.85;12.18;;;6.80;99.90;;;7.10;97.55;100690.94;5053699;28;20036;-77
2023/04/14 05:11:05;;;;;;;29.63;12.43;;;6.90;99.90;;;7.25;97.24;100697.16;5053673;28;20048;-77
2023/04/14 05:13:34;;;;;;;33.05;12.88;;;7.00;99.90;;;7.38;96.56;100697.22;5053992;28;20323;-77
2023/04/14 05:16:04;;;;;;;29.42;12.80;;;7.20;99.90;;;7.43;95.98;100706.91;5053880;28;20069;-77
2023/04/14 05:18:33;;;;;;;33.47;12.85;;;7.30;99.90;;;7.43;95.00;100709.56;5053852;28;20144;-77
2023/04/14 05:21:05;;;;;;;26.90;11.75;;;7.30;99.90;;;7.18;94.50;100657.66;5053817;28;20041;-77
2023/04/14 05:23:36;;;;;;;32.42;12.32;;;7.20;99.90;;;7.26;94.77;100711.16;5053485;28;20481;-77
2023/04/14 05:26:05;;;;;;;;;;;7.10;99.90;;;7.22;95.05;100707.66;5054475;28;20045;-76
2023/04/14 05:28:53;;;;;;;40.67;13.02;;;7.00;99.90;;;7.39;94.56;100715.66;5053737;28;19929;-77
2023/04/14 05:31:22;;;;;;;33.63;12.57;;;7.10;99.90;;;7.26;94.71;100724.31;5053538;28;20051;-77
2023/04/14 05:33:50;;;;;;;35.33;13.70;;;7.10;99.90;;;7.11;95.37;100717.22;5053770;28;20055;-77
2023/04/14 05:36:19;;;;;;;31.30;12.95;;;6.90;99.90;;;7.03;95.81;100715.41;5053529;28;20043;-77
2023/04/14 05:38:49;;;;;;;38.42;13.57;;;6.80;99.90;;;7.03;96.26;100733.81;5068822;28;20041;-76
2023/04/14 05:41:17;;;;;;;39.87;14.10;;;6.80;99.90;;;7.13;96.17;100727.75;5053161;28;20401;-77
2023/04/14 05:43:45;;;;;;;36.47;14.85;;;6.80;99.90;;;7.17;95.74;100727.78;5053047;28;20447;-77
2023/04/14 05:46:14;;;;;;;38.40;15.45;;;7.00;99.90;;;7.36;95.10;100727.88;5053205;28;20044;-77
2023/04/14 05:48:42;;;;;;;41.28;15.68;;;7.10;99.90;;;7.62;94.99;100728.94;5052896;28;20056;-77
2023/04/14 05:51:11;;;;;;;39.53;16.10;;;7.30;99.90;;;7.67;93.61;100732.47;5053358;28;20068;-76
2023/04/14 05:53:39;;;;;;;45.85;16.33;;;7.40;99.90;;;7.88;93.64;100728.19;5052780;28;20053;-76
2023/04/14 05:56:10;;;;;;;36.58;16.38;;;7.60;99.90;;;7.96;92.71;100734.34;5053143;28;20126;-76
2023/04/14 05:58:38;;;;;;;;;;;7.60;99.90;;;8.20;92.26;100738.84;5053216;28;20490;-76
2023/04/14 06:01:07;;;;;;;32.50;14.13;;;7.80;99.90;;;8.43;91.04;100741.56;5053210;28;20022;-77
2023/04/14 06:03:36;;;;;;;30.25;12.68;;;8.10;99.90;;;8.46;89.58;100738.94;5052679;28;20049;-76
2023/04/14 06:06:07;;;;;;;25.98;12.40;;;8.20;99.90;;;8.63;90.27;100745.97;5052756;28;20132;-76
2023/04/14 06:08:36;;;;;;;28.17;13.10;;;8.30;99.90;;;8.54;89.60;100752.97;5052603;28;20037;-78
2023/04/14 06:11:05;;;;;;;28.25;13.05;;;8.30;99.90;;;8.49;89.50;100729.28;5053142;28;20119;-77
2023/04/14 06:13:35;;;;;;;37.08;13.93;;;8.40;99.90;;;8.68;89.17;100752.16;5052648;28;20047;-78
2023/04/14 06:16:04;;;;;;;32.97;13.68;;;8.50;99.90;;;8.43;89.30;100713.44;5053171;28;20115;-77
2023/04/14 06:18:32;;;;;;;36.65;15.27;;;8.40;99.90;;;8.13;89.11;100653.63;5052855;28;20048;-77
2023/04/14 06:21:02;;;;;;;37.63;14.15;;;8.40;99.90;;;8.58;89.22;100738.94;5052919;28;20128;-78
2023/04/14 06:23:31;;;;;;;31.83;12.43;;;8.40;99.90;;;8.23;89.86;100743.25;5051514;28;20469;-77
2023/04/14 06:26:00;;;;;;;37.42;13.65;;;8.10;99.90;;;8.45;90.60;100752.97;5068396;28;20461;-78
2023/04/14 06:28:28;;;;;;;35.75;12.88;;;8.10;99.90;;;8.48;89.37;100745.09;5052481;28;20394;-78
2023/04/14 06:30:59;;;;;;;25.45;12.15;;;8.30;99.90;;;8.54;89.22;100752.97;5052426;28;20553;-78
2023/04/14 06:33:27;;;;;;;;;;;8.40;99.90;;;8.62;89.31;100749.50;5052973;28;20063;-78
2023/04/14 06:35:55;;;;;;;27.90;12.15;;;8.40;99.90;;;8.54;88.82;100738.06;5052476;28;20003;-79
2023/04/14 06:38:24;;;;;;;25.77;11.93;;;8.40;99.90;;;8.77;90.96;100735.44;5052964;28;20106;-78
2023/04/14 06:40:53;;;;;;;27.25;11.02;;;8.50;99.90;;;8.89;89.13;100741.63;5068053;28;20041;-78
2023/04/14 06:43:21;;;;;;;25.92;12.02;;;8.60;99.90;;;8.70;89.09;100733.69;5052596;28;20124;-78
2023/04/14 06:45:50;;;;;;;25.60;11.57;;;8.60;99.90;;;8.89;88.93;100736.34;5052586;28;20479;-78
2023/04/14 06:48:20;;;;;;;31.75;12.20;;;8.70;99.90;;;8.82;87.37;100733.69;5052273;28;20051;-78
2023/04/14 06:50:54;;;;;;;20.03;11.07;;;8.60;99.90;;;9.13;88.24;100737.22;5052624;28;20045;-78
2023/04/14 06:53:23;;;;;;;28.25;12.00;;;8.80;99.90;;;9.07;86.86;100732.81;5052278;28;20049;-78
2023/04/14 06:55:57;;;;;;;24.45;11.48;;;8.90;99.90;;;9.14;86.55;100731.06;5068003;28;20099;-78
2023/04/14 06:58:27;;;;;;;23.52;11.15;;;8.90;99.90;;;9.27;86.14;100731.03;5052288;28;20041;-77
2023/04/14 07:00:56;;;;;;;27.75;11.38;;;9.10;99.90;;;9.28;87.51;100758.28;5052426;28;20048;-74
2023/04/14 07:03:29;;;;;;;27.33;11.65;;;9.10;99.90;;;9.05;87.21;100695.00;5051347;28;20056;-76
2023/04/14 07:06:04;;;;;;;23.15;10.43;;;9.00;99.90;;;9.29;86.43;100731.91;5053388;28;20044;-77
2023/04/14 07:08:33;;;;;;;26.27;11.25;;;9.10;99.90;;;9.44;86.19;100739.81;5056272;28;20045;-77
2023/04/14 07:11:04;;;;;;;18.50;10.73;;;9.20;99.90;;;9.54;84.46;100738.03;5071810;28;20053;-78
2023/04/14 07:13:33;;;;;;;;;;;9.30;99.90;;;9.65;84.54;100731.84;5072055;28;20072;-77
2023/04/14 07:16:02;;;;;;;19.50;9.60;;;9.40;99.90;;;8.80;84.56;100608.88;5055597;28;19928;-76
2023/04/14 07:18:32;;;;;;;19.08;9.65;;;9.30;99.90;;;9.25;83.22;100695.88;5056093;28;20036;-75
2023/04/14 07:21:01;;;;;;;22.75;11.02;;;9.30;99.90;;;9.59;84.77;100733.59;5055845;28;20186;-74
2023/04/14 07:23:29;;;;;;;21.00;9.93;;;9.30;99.90;;;9.56;85.51;100733.63;5055439;28;20122;-75
2023/04/14 07:25:59;;;;;;;20.33;9.45;;;9.30;99.90;;;9.23;84.71;100673.88;5055621;28;20052;-77
2023/04/14 07:28:29;;;;;;;20.13;9.52;;;9.30;99.90;;;9.59;85.11;100718.66;5055644;28;20564;-76
2023/04/14 07:30:59;;;;;;;;;;;9.30;99.90;;;9.64;85.05;100703.66;5056111;28;20061;-78
2023/04/14 07:33:29;;;;;;;16.40;9.43;;;9.60;99.90;;;10.00;84.17;100716.75;5055452;28;19978;-76
2023/04/14 07:36:00;;;;;;;20.60;9.15;;;9.70;99.90;;;9.87;82.55;100722.09;5055540;28;20037;-77
2023/04/14 07:38:31;;;;;;;24.02;8.77;;;9.70;99.90;;;10.26;82.47;100713.13;5055704;28;20447;-76
2023/04/14 07:41:03;;;;;;;19.67;9.35;;;10.00;99.90;;;10.21;80.68;100681.41;5055584;28;20068;-80
2023/04/14 07:43:34;;;;;;;19.65;8.45;;;10.10;99.90;;;10.54;80.36;100712.94;5055419;28;20110;-74
2023/04/14 07:46:03;;;;;;;19.55;8.63;;;10.30;99.90;;;10.65;81.26;100712.84;5055623;28;20128;-74
2023/04/14 07:48:34;;;;;;;17.90;8.88;;;10.40;99.90;;;10.81;78.87;100699.50;5054274;28;20502;-71
2023/04/14 07:51:04;;;;;;;16.27;8.57;;;10.70;99.90;;;11.01;79.03;100720.50;5055150;28;20044;-79
2023/04/14 07:53:33;;;;;;;17.38;9.15;;;10.70;99.90;;;10.58;78.46;100692.63;5055654;28;20097;-73
2023/04/14 07:56:01;;;;;;;19.67;8.18;;;10.60;99.90;;;10.65;78.74;100726.06;5055119;28;20128;-74
2023/04/14 07:58:30;;;;;;;15.40;7.85;;;10.40;99.90;;;10.50;78.89;100715.59;5055016;28;20041;-73
2023/04/14 08:00:58;;;;;;;15.27;8.18;;;10.30;99.90;;;10.40;78.92;100725.34;5054947;28;20433;-74
2023/04/14 08:03:26;;;;;;;17.13;8.50;;;10.20;99.90;;;10.39;80.51;100728.00;5054798;28;20045;-74
2023/04/14 08:05:56;;;;;;;16.27;7.53;;;10.20;99.90;;;10.74;80.61;100713.66;5054945;28;20116;-74
2023/04/14 08:08:26;;;;;;;15.95;7.47;;;10.40;99.90;;;10.95;79.18;100719.66;5054818;28;20056;-73
2023/04/14 08:10:54;;;;;;;14.15;7.13;;;10.60;99.90;;;11.08;77.87;100714.25;5070467;28;20049;-75
2023/04/14 08:13:23;;;;;;;16.58;7.13;;;10.90;99.90;;;10.93;77.75;100705.56;5054677;28;20091;-73
2023/04/14 08:15:51;;;;;;;11.68;6.75;;;10.70;99.90;;;11.34;77.20;100709.56;5054691;28;20041;-73
2023/04/14 08:18:20;;;;;;;14.27;7.07;;;11.00;99.90;;;11.15;77.34;100712.44;5054652;28;20045;-72
2023/04/14 08:20:48;;;;;;;13.90;6.32;;;10.90;99.90;;;11.35;76.92;100707.81;5055010;28;20033;-71
2023/04/14 08:23:17;;;;;;;13.45;6.72;;;11.10;99.90;;;11.57;76.71;100706.69;5054828;28;20102;-73
2023/04/14 08:25:46;;;;;;;15.15;6.70;;;11.40;99.90;;;11.49;76.14;100706.78;5054857;28;20051;-72
2023/04/14 08:28:15;;;;;;;16.43;6.03;;;11.20;99.90;;;11.11;75.24;100719.50;5054555;28;20068;-74
2023/04/14 08:30:43;;;;;;;13.93;7.10;;;10.90;99.90;;;11.27;77.39;100702.59;5054538;28;20485;-72
2023/04/14 08:33:12;;;;;;;16.05;6.53;;;10.90;99.90;;;11.20;75.82;100713.25;5054898;28;20049;-74
2023/04/14 08:35:40;;;;;;;9.30;5.43;;;11.00;99.90;;;11.28;73.48;100714.06;5054399;28;20067;-72
2023/04/14 08:38:11;;;;;;;10.90;5.70;;;11.00;99.90;;;11.04;72.94;100715.16;5054342;28;20033;-73
2023/04/14 08:40:41;;;;;;;21.42;6.75;;;10.90;99.90;;;11.51;75.57;100728.84;5054407;28;20467;-75
2023/04/14 08:43:12;;;;;;;12.15;6.93;;;11.10;99.90;;;11.88;73.67;100712.56;5054619;28;20110;-74
2023/04/14 08:45:43;;;;;;;10.50;5.40;;;11.50;99.90;;;12.01;73.67;100714.16;5053760;28;20075;-75
2023/04/14 08:48:15;;;;;;;10.40;5.22;;;11.90;99.90;;;11.34;71.33;100714.88;5052610;28;20465;-75
2023/04/14 08:50:52;;;;;;;13.95;6.18;;;11.30;99.90;;;11.52;73.57;100700.56;5053858;28;20132;-75
2023/04/14 08:53:22;;;;;;;9.40;4.60;;;11.30;99.90;;;11.40;73.44;100721.91;5054019;28;20037;-75
2023/04/14 08:55:51;;;;;;;7.88;4.70;;;11.10;99.90;;;11.67;73.46;100706.59;5054007;28;20405;-70
2023/04/14 08:58:21;;;;;;;6.03;4.45;;;11.30;99.90;;;11.70;70.19;100709.22;5053894;28;20067;-65
2023/04/14 09:00:52;;;;;;;7.75;4.43;;;11.50;99.90;;;11.93;70.53;100719.53;5054259;28;20053;-69
2023/04/14 09:03:21;;;;;;;12.45;4.47;;;11.60;99.90;;;12.27;69.38;100706.72;5053897;28;20102;-74
2023/04/14 09:05:51;;;;;;;9.18;4.40;;;11.90;99.90;;;12.33;69.72;100699.56;5053797;28;20127;-69
2023/04/14 09:08:20;;;;;;;7.82;4.40;;;12.00;99.90;;;12.26;67.77;100708.50;5054127;28;20068;-69
2023/04/14 09:10:48;;;;;;;15.48;6.00;;;12.00;99.90;;;12.33;67.56;100704.00;5053938;28;20414;-68
2023/04/14 09:13:22;;;;;;;7.30;4.90;;;12.10;99.90;;;12.56;67.77;100712.50;5053824;28;20045;-67
2023/04/14 09:15:51;;;;;;;12.38;5.15;;;12.40;99.90;;;12.51;68.43;100715.22;5053541;28;20095;-69
2023/04/14 09:18:19;;;;;;;10.20;5.47;;;12.30;99.90;;;12.64;67.89;100715.88;5053582;28;20381;-74
2023/04/14 09:20:48;;;;;;;7.75;5.03;;;12.40;99.90;;;12.57;65.87;100728.38;5053708;28;20052;-78
2023/04/14 09:23:40;;;;;;;14.20;6.32;;;12.50;99.90;;;12.65;67.62;100717.66;5053319;28;20132;-78
2023/04/14 09:26:10;;;;;;;9.85;4.97;;;12.50;99.90;;;12.57;67.39;100717.78;5053121;28;20048;-77
2023/04/14 09:28:40;;;;;;;11.00;5.40;;;12.40;99.90;;;12.11;66.64;100719.31;5051584;28;20040;-78
2023/04/14 09:31:10;;;;;;;13.40;5.30;;;12.00;99.90;;;12.35;69.47;100710.16;5053751;28;20633;-78
2023/04/14 09:33:40;;;;;;;7.95;5.50;;;12.00;99.90;;;12.40;66.61;100708.31;5053264;28;20128;-77
2023/04/14 09:36:19;;;;;;;11.68;4.80;;;12.10;99.90;;;12.59;67.86;100696.50;5053538;28;20041;-76
2023/04/14 09:38:49;;;;;;;12.18;5.70;;;12.30;99.90;;;11.67;65.70;100643.00;5053093;28;20044;-77
2023/04/14 09:41:21;;;;;;;11.48;5.20;;;12.00;99.90;;;12.16;66.67;100700.69;5053071;28;20091;-77
2023/04/14 09:43:51;;;;;;;8.50;4.68;;;11.90;99.90;;;12.10;68.38;100703.44;5053108;28;20064;-77
2023/04/14 09:46:20;;;;;;;13.32;4.43;;;11.90;99.90;;;11.76;66.95;100714.47;5053125;28;20051;-76
2023/04/14 09:48:54;;;;;;;9.20;4.45;;;11.60;99.90;;;12.08;66.45;100716.69;5053274;28;20118;-78
2023/04/14 09:51:26;;;;;;;10.00;5.03;;;11.80;99.90;;;11.83;65.46;100711.75;5053042;28;20040;-78
2023/04/14 09:53:55;;;;;;;12.40;4.68;;;11.60;99.90;;;12.25;67.34;100692.63;5052981;28;20068;-77
2023/04/14 09:56:27;;;;;;;10.02;5.30;;;11.90;99.90;;;12.52;66.20;100703.69;5053120;28;20056;-78
2023/04/14 09:59:00;;;;;;;9.43;5.57;;;12.20;99.90;;;12.61;64.48;100719.47;5052001;28;20060;-76
2023/04/14 10:01:32;;;;;;;9.98;6.00;;;12.40;99.90;;;12.52;64.28;100697.53;5052893;28;20403;-78
2023/04/14 10:04:03;;;;;;;8.82;5.82;;;12.30;99.90;;;12.67;63.33;100707.91;5052578;28;20409;-77
2023/04/14 10:06:31;;;;;;;14.95;6.25;;;12.40;99.90;;;13.06;64.85;100698.44;5053024;28;20128;-77
2023/04/14 10:09:00;;;;;;;15.88;6.75;;;12.80;99.90;;;13.15;63.75;100685.00;5053265;28;20394;-77
2023/04/14 10:11:31;;;;;;;11.90;6.63;;;13.00;99.90;;;12.80;66.15;100693.53;5052846;28;20136;-78
2023/04/14 10:14:04;;;;;;;14.13;6.90;;;12.70;99.90;;;12.36;68.14;100680.06;5052866;28;20128;-77
2023/04/14 10:16:33;;;;;;;13.52;6.95;;;12.20;99.90;;;12.40;66.50;100692.41;5053143;28;20048;-77
2023/04/14 10:19:02;;;;;;;11.55;6.78;;;12.20;99.90;;;12.22;66.85;100682.03;5052558;28;20049;-77
2023/04/14 10:21:32;;;;;;;12.20;7.20;;;12.00;99.90;;;12.32;68.42;100681.00;5052692;28;20114;-77
2023/04/14 10:24:01;;;;;;;10.88;6.55;;;12.00;99.90;;;12.49;68.66;100685.16;5052437;28;20080;-77
2023/04/14 10:26:30;;;;;;;13.48;7.07;;;12.20;99.90;;;12.65;65.92;100688.47;5052315;28;20415;-77
2023/04/14 10:29:00;;;;;;;12.00;5.53;;;12.40;99.90;;;12.95;66.88;100666.72;5052484;28;20558;-75
2023/04/14 10:31:36;;;;;;;11.77;5.28;;;12.60;99.90;;;13.07;62.26;100686.91;5053039;28;20103;-76